createdAt,value
2023-05-11T00:01:16.440Z,18.35
2023-05-11T00:03:43.678Z,18.27
2023-05-11T00:06:10.658Z,18.30
2023-05-11T00:08:37.752Z,18.30
2023-05-11T00:11:07.872Z,18.28
2023-05-11T00:13:34.866Z,18.26
2023-05-11T00:16:01.742Z,18.20
2023-05-11T00:18:28.809Z,18.13
2023-05-11T00:20:56.691Z,18.11
2023-05-11T00:23:23.864Z,18.13
2023-05-11T00:25:50.772Z,18.05
2023-05-11T00:28:17.738Z,18.10
2023-05-11T00:30:45.383Z,18.02
2023-05-11T00:33:12.369Z,18.05
2023-05-11T00:35:39.104Z,18.05
2023-05-11T00:38:06.124Z,18.11
2023-05-11T00:40:32.962Z,18.09
2023-05-11T00:43:00.004Z,17.97
2023-05-11T00:45:26.864Z,17.94
2023-05-11T00:47:53.935Z,17.90
2023-05-11T00:50:20.823Z,17.89
2023-05-11T00:52:47.874Z,17.81
2023-05-11T00:55:14.681Z,17.78
2023-05-11T00:57:41.696Z,17.79
2023-05-11T01:00:09.043Z,17.83
2023-05-11T01:02:36.200Z,17.76
2023-05-11T01:05:03.179Z,17.75
2023-05-11T01:07:35.421Z,17.77
2023-05-11T01:10:30.089Z,17.70
2023-05-11T01:13:02.356Z,17.66
2023-05-11T01:15:51.540Z,17.60
2023-05-11T01:18:24.097Z,17.58
2023-05-11T01:20:53.392Z,17.55
2023-05-11T01:23:56.305Z,17.51
2023-05-11T01:26:44.461Z,17.49
2023-05-11T01:29:26.293Z,17.48
2023-05-11T01:31:54.778Z,17.48
2023-05-11T01:34:23.590Z,17.42
2023-05-11T01:36:58.872Z,17.43
2023-05-11T01:39:30.777Z,17.46
2023-05-11T01:41:57.473Z,17.39
2023-05-11T01:44:25.858Z,17.38
2023-05-11T01:46:52.590Z,17.36
2023-05-11T01:49:19.615Z,17.34
2023-05-11T01:51:46.302Z,17.35
2023-05-11T01:54:13.358Z,17.26
2023-05-11T01:56:40.885Z,17.16
2023-05-11T01:59:07.960Z,17.08
2023-05-11T02:01:35.767Z,17.08
2023-05-11T02:04:04.080Z,17.16
2023-05-11T02:06:31.061Z,17.13
2023-05-11T02:08:58.111Z,17.14
2023-05-11T02:11:25.018Z,17.10
2023-05-11T02:13:52.049Z,17.09
2023-05-11T02:16:19.018Z,17.04
2023-05-11T02:18:46.352Z,16.99
2023-05-11T02:21:13.485Z,16.96
2023-05-11T02:23:40.514Z,16.92
2023-05-11T02:26:07.187Z,16.90
2023-05-11T02:28:34.204Z,16.84
2023-05-11T02:31:03.447Z,16.82
2023-05-11T02:33:35.523Z,16.80
2023-05-11T02:36:02.324Z,16.70
2023-05-11T02:38:33.792Z,16.75
2023-05-11T02:41:09.348Z,16.67
2023-05-11T02:43:37.328Z,16.69
2023-05-11T02:46:08.896Z,16.66
2023-05-11T02:48:40.055Z,16.61
2023-05-11T02:51:07.803Z,16.56
2023-05-11T02:53:34.931Z,16.56
2023-05-11T02:56:01.774Z,16.57
2023-05-11T02:58:32.398Z,16.47
2023-05-11T03:00:59.243Z,16.44
2023-05-11T03:03:27.075Z,16.44
2023-05-11T03:05:53.892Z,16.39
2023-05-11T03:08:20.918Z,16.39
2023-05-11T03:10:47.618Z,16.33
2023-05-11T03:13:16.160Z,16.28
2023-05-11T03:15:42.902Z,16.26
2023-05-11T03:18:10.018Z,16.27
2023-05-11T03:20:37.335Z,16.26
2023-05-11T03:23:05.446Z,16.17
2023-05-11T03:25:32.178Z,16.20
2023-05-11T03:27:59.278Z,16.13
2023-05-11T03:30:26.217Z,16.08
2023-05-11T03:32:53.254Z,16.05
2023-05-11T03:35:20.620Z,16.07
2023-05-11T03:37:47.636Z,16.00
2023-05-11T03:40:14.939Z,15.99
2023-05-11T03:42:41.959Z,15.97
2023-05-11T03:45:09.055Z,15.97
2023-05-11T03:47:36.092Z,15.96
2023-05-11T03:50:03.098Z,15.95
2023-05-11T03:52:30.186Z,15.88
2023-05-11T03:54:56.921Z,15.85
2023-05-11T03:57:27.070Z,15.83
2023-05-11T03:59:53.785Z,15.79
2023-05-11T04:02:22.013Z,15.79
2023-05-11T04:04:48.967Z,15.75
2023-05-11T04:07:16.099Z,15.77
2023-05-11T04:09:42.802Z,15.75
2023-05-11T04:12:09.880Z,15.72
2023-05-11T04:14:36.569Z,15.71
2023-05-11T04:17:03.548Z,15.70
2023-05-11T04:19:30.373Z,15.68
2023-05-11T04:21:57.379Z,15.71
2023-05-11T04:24:24.145Z,15.70
2023-05-11T04:26:55.918Z,15.67
2023-05-11T04:29:22.601Z,15.66
2023-05-11T04:31:50.011Z,15.68
2023-05-11T04:34:16.784Z,15.68
2023-05-11T04:36:44.089Z,15.66
2023-05-11T04:39:10.758Z,15.64
2023-05-11T04:41:37.775Z,15.65
2023-05-11T04:44:04.991Z,15.64
2023-05-11T04:46:32.075Z,15.61
2023-05-11T04:48:58.826Z,15.63
2023-05-11T04:51:25.908Z,15.62
2023-05-11T04:53:52.752Z,15.62
2023-05-11T04:56:21.494Z,15.68
2023-05-11T04:58:48.299Z,15.65
2023-05-11T05:01:15.388Z,15.68
2023-05-11T05:03:42.258Z,15.76
2023-05-11T05:06:09.497Z,15.81
2023-05-11T05:08:36.189Z,15.72
2023-05-11T05:11:03.250Z,15.71
2023-05-11T05:13:29.964Z,15.88
2023-05-11T05:15:57.173Z,15.85
2023-05-11T05:18:23.895Z,15.91
2023-05-11T05:20:50.912Z,15.92
2023-05-11T05:23:17.612Z,16.01
2023-05-11T05:25:44.690Z,16.07
2023-05-11T05:28:11.485Z,16.02
2023-05-11T05:30:38.570Z,16.04
2023-05-11T05:33:05.459Z,16.11
2023-05-11T05:35:32.673Z,16.17
2023-05-11T05:37:59.393Z,16.26
2023-05-11T05:40:26.605Z,16.29
2023-05-11T05:42:53.342Z,16.31
2023-05-11T05:45:20.515Z,16.37
2023-05-11T05:47:49.108Z,16.47
2023-05-11T05:50:16.473Z,16.53
2023-05-11T05:52:43.287Z,16.59
2023-05-11T05:55:10.378Z,16.63
2023-05-11T05:57:37.174Z,16.71
2023-05-11T06:00:04.651Z,16.78
2023-05-11T06:02:31.511Z,16.84
2023-05-11T06:04:59.105Z,16.92
2023-05-11T06:07:27.444Z,17.00
2023-05-11T06:09:54.510Z,17.08
2023-05-11T06:12:21.279Z,17.10
2023-05-11T06:14:48.344Z,17.24
2023-05-11T06:17:15.148Z,17.27
2023-05-11T06:19:42.678Z,17.35
2023-05-11T06:22:09.457Z,17.43
2023-05-11T06:24:36.546Z,17.48
2023-05-11T06:27:03.422Z,17.50
2023-05-11T06:29:30.641Z,17.58
2023-05-11T06:31:58.035Z,17.68
2023-05-11T06:34:25.274Z,17.74
2023-05-11T06:36:52.122Z,17.73
2023-05-11T06:39:19.187Z,17.78
2023-05-11T06:41:46.124Z,17.83
2023-05-11T06:44:13.278Z,17.91
2023-05-11T06:46:40.120Z,17.94
2023-05-11T06:49:08.733Z,18.03
2023-05-11T06:51:35.587Z,18.10
2023-05-11T06:54:02.766Z,18.16
2023-05-11T06:56:29.730Z,18.20
2023-05-11T06:58:56.901Z,18.30
2023-05-11T07:01:23.701Z,18.37
2023-05-11T07:03:52.735Z,18.45
2023-05-11T07:06:21.691Z,18.52
2023-05-11T07:08:48.779Z,18.65
2023-05-11T07:11:15.836Z,18.70
2023-05-11T07:13:43.062Z,18.81
2023-05-11T07:16:09.907Z,18.89
2023-05-11T07:18:36.954Z,18.98
2023-05-11T07:21:03.819Z,19.08
2023-05-11T07:23:30.903Z,19.15
2023-05-11T07:25:58.252Z,19.23
2023-05-11T07:28:25.359Z,19.35
2023-05-11T07:30:52.232Z,19.43
2023-05-11T07:33:19.349Z,19.52
2023-05-11T07:35:46.219Z,19.62
2023-05-11T07:38:13.849Z,19.70
2023-05-11T07:40:40.650Z,19.81
2023-05-11T07:43:07.844Z,19.87
2023-05-11T07:45:34.742Z,19.95
2023-05-11T07:48:01.902Z,20.07
2023-05-11T07:50:28.820Z,20.16
2023-05-11T07:52:55.909Z,20.26
2023-05-11T07:55:25.091Z,20.31
2023-05-11T07:57:54.279Z,20.42
2023-05-11T08:00:21.924Z,20.50
2023-05-11T08:02:49.003Z,20.59
2023-05-11T08:05:17.501Z,20.70
2023-05-11T08:07:44.696Z,20.82
2023-05-11T08:10:12.073Z,20.88
2023-05-11T08:12:39.180Z,20.97
2023-05-11T08:15:06.298Z,21.13
2023-05-11T08:17:33.350Z,21.16
2023-05-11T08:20:00.121Z,21.21
2023-05-11T08:22:27.443Z,21.31
2023-05-11T08:24:54.221Z,21.43
2023-05-11T08:27:21.258Z,21.45
2023-05-11T08:29:47.975Z,21.55
2023-05-11T08:32:15.037Z,21.62
2023-05-11T08:34:41.792Z,21.78
2023-05-11T08:37:08.863Z,21.83
2023-05-11T08:39:46.719Z,21.93
2023-05-11T08:42:18.021Z,21.99
2023-05-11T08:44:44.808Z,22.11
2023-05-11T08:47:22.810Z,22.19
2023-05-11T08:49:52.548Z,22.25
2023-05-11T08:52:19.687Z,22.33
2023-05-11T08:54:47.147Z,22.39
2023-05-11T08:57:14.508Z,22.48
2023-05-11T08:59:42.160Z,22.58
2023-05-11T09:02:10.781Z,22.66
2023-05-11T09:04:37.547Z,22.73
2023-05-11T09:07:04.510Z,22.81
2023-05-11T09:09:31.237Z,22.90
2023-05-11T09:11:58.762Z,22.93
2023-05-11T09:14:27.677Z,23.02
2023-05-11T09:16:54.947Z,23.12
2023-05-11T09:19:22.017Z,23.17
2023-05-11T09:21:49.112Z,23.18
2023-05-11T09:24:15.867Z,23.27
2023-05-11T09:26:43.010Z,23.32
2023-05-11T09:29:09.729Z,23.41
2023-05-11T09:31:43.789Z,23.45
2023-05-11T09:34:14.561Z,23.48
2023-05-11T09:36:42.951Z,23.58
2023-05-11T09:39:15.298Z,23.59
2023-05-11T09:41:43.081Z,23.66
2023-05-11T09:44:10.657Z,23.73
2023-05-11T09:46:38.766Z,23.71
2023-05-11T09:49:06.279Z,23.80
2023-05-11T09:51:38.166Z,23.82
2023-05-11T09:54:19.058Z,23.90
2023-05-11T09:56:54.396Z,23.97
2023-05-11T09:59:41.486Z,24.03
2023-05-11T10:02:21.576Z,24.10
2023-05-11T10:04:49.677Z,24.16
2023-05-11T10:07:33.177Z,24.14
2023-05-11T10:10:01.734Z,24.17
2023-05-11T10:12:30.313Z,24.17
2023-05-11T10:15:07.071Z,24.27
2023-05-11T10:17:34.378Z,24.35
2023-05-11T10:20:01.820Z,24.37
2023-05-11T10:22:29.363Z,24.45
2023-05-11T10:24:59.523Z,24.49
2023-05-11T10:27:27.115Z,24.55
2023-05-11T10:29:54.157Z,24.65
2023-05-11T10:32:21.644Z,24.73
2023-05-11T10:34:48.558Z,24.66
2023-05-11T10:37:16.253Z,24.74
2023-05-11T10:39:44.103Z,24.80
2023-05-11T10:42:29.832Z,24.86
2023-05-11T10:44:59.221Z,24.97
2023-05-11T10:48:03.989Z,25.08
2023-05-11T10:50:43.361Z,25.21
2023-05-11T10:53:38.121Z,25.26
2023-05-11T10:56:36.634Z,25.36
2023-05-11T10:59:09.724Z,25.42
2023-05-11T11:01:43.453Z,25.48
2023-05-11T11:04:14.356Z,25.62
2023-05-11T11:06:42.267Z,25.62
2023-05-11T11:09:13.126Z,25.66
2023-05-11T11:11:46.560Z,25.72
2023-05-11T11:14:14.856Z,25.73
2023-05-11T11:16:41.989Z,25.83
2023-05-11T11:19:30.973Z,25.88
2023-05-11T11:22:00.222Z,25.92
2023-05-11T11:24:42.898Z,26.04
2023-05-11T11:27:09.796Z,26.14
2023-05-11T11:29:37.543Z,26.16
2023-05-11T11:32:19.593Z,26.29
2023-05-11T11:34:47.194Z,26.31
2023-05-11T11:37:15.058Z,26.31
2023-05-11T11:39:42.074Z,26.39
2023-05-11T11:42:28.014Z,26.42
2023-05-11T11:44:55.578Z,26.47
2023-05-11T11:47:22.990Z,26.57
2023-05-11T11:49:51.498Z,26.56
2023-05-11T11:52:27.481Z,26.63
2023-05-11T11:54:55.905Z,26.76
2023-05-11T11:57:34.827Z,26.79
2023-05-11T12:00:06.939Z,26.89
2023-05-11T12:02:34.159Z,26.98
2023-05-11T12:05:22.536Z,27.05
2023-05-11T12:07:50.584Z,27.12
2023-05-11T12:10:18.392Z,27.14
2023-05-11T12:12:46.122Z,27.12
2023-05-11T12:15:29.755Z,27.16
2023-05-11T12:17:56.671Z,27.27
2023-05-11T12:20:24.048Z,27.32
2023-05-11T12:22:50.948Z,27.33
2023-05-11T12:25:19.436Z,27.48
2023-05-11T12:27:55.296Z,27.47
2023-05-11T12:30:23.907Z,27.44
2023-05-11T12:32:56.633Z,27.47
2023-05-11T12:35:33.876Z,27.54
2023-05-11T12:38:02.286Z,27.58
2023-05-11T12:40:29.470Z,27.62
2023-05-11T12:42:57.588Z,27.65
2023-05-11T12:45:25.447Z,27.64
2023-05-11T12:47:54.198Z,27.73
2023-05-11T12:50:21.542Z,27.74
2023-05-11T12:52:49.180Z,27.82
2023-05-11T12:55:29.252Z,27.82
2023-05-11T12:58:13.736Z,27.79
2023-05-11T13:00:54.348Z,27.83
2023-05-11T13:03:24.957Z,27.81
2023-05-11T13:05:52.386Z,27.79
2023-05-11T13:08:19.281Z,27.85
2023-05-11T13:10:48.221Z,27.93
2023-05-11T13:13:33.029Z,28.00
2023-05-11T13:16:00.622Z,28.04
2023-05-11T13:18:27.460Z,28.08
2023-05-11T13:21:07.637Z,28.09
2023-05-11T13:23:34.553Z,28.14
2023-05-11T13:26:01.596Z,28.17
2023-05-11T13:28:28.325Z,28.16
2023-05-11T13:31:00.208Z,28.12
2023-05-11T13:33:27.503Z,28.19
2023-05-11T13:35:54.541Z,28.27
2023-05-11T13:38:21.242Z,28.21
2023-05-11T13:40:48.521Z,28.22
2023-05-11T13:43:15.325Z,28.28
2023-05-11T13:45:42.395Z,28.36
2023-05-11T13:48:09.152Z,28.36
2023-05-11T13:50:36.251Z,28.30
2023-05-11T13:53:03.018Z,28.29
2023-05-11T13:55:30.692Z,28.36
2023-05-11T13:57:57.985Z,28.42
2023-05-11T14:00:25.318Z,28.35
2023-05-11T14:02:52.323Z,28.34
2023-05-11T14:05:19.777Z,28.35
2023-05-11T14:07:48.185Z,28.33
2023-05-11T14:10:16.749Z,28.35
2023-05-11T14:12:43.486Z,28.37
2023-05-11T14:15:11.297Z,28.30
2023-05-11T14:17:38.148Z,28.39
2023-05-11T14:20:06.654Z,28.38
2023-05-11T14:22:33.383Z,28.37
2023-05-11T14:25:01.896Z,28.36
2023-05-11T14:27:29.815Z,28.36
2023-05-11T14:29:56.937Z,28.36
2023-05-11T14:32:23.727Z,28.38
2023-05-11T14:34:50.842Z,28.30
2023-05-11T14:37:17.597Z,28.27
2023-05-11T14:39:44.989Z,28.31
2023-05-11T14:42:11.720Z,28.42
2023-05-11T14:44:38.813Z,28.48
2023-05-11T14:47:05.859Z,28.42
2023-05-11T14:49:32.945Z,28.43
2023-05-11T14:51:59.849Z,28.37
2023-05-11T14:54:26.931Z,28.39
2023-05-11T14:56:56.208Z,28.44
2023-05-11T14:59:24.427Z,28.41
2023-05-11T15:01:51.301Z,28.38
2023-05-11T15:04:18.762Z,28.31
2023-05-11T15:06:45.536Z,28.20
2023-05-11T15:09:12.560Z,28.13
2023-05-11T15:11:39.268Z,28.11
2023-05-11T15:14:07.114Z,28.10
2023-05-11T15:16:33.877Z,28.16
2023-05-11T15:19:01.085Z,28.21
2023-05-11T15:21:27.911Z,28.18
2023-05-11T15:23:55.211Z,28.13
2023-05-11T15:26:23.179Z,28.13
2023-05-11T15:28:50.354Z,28.10
2023-05-11T15:31:17.396Z,28.00
2023-05-11T15:33:45.059Z,28.09
2023-05-11T15:36:15.321Z,28.02
2023-05-11T15:38:42.777Z,27.97
2023-05-11T15:41:09.677Z,27.96
2023-05-11T15:43:36.696Z,27.86
2023-05-11T15:46:04.104Z,27.86
2023-05-11T15:48:31.352Z,27.85
2023-05-11T15:50:59.496Z,27.80
2023-05-11T15:53:26.896Z,27.77
2023-05-11T15:55:55.496Z,27.71
2023-05-11T15:58:23.089Z,27.63
2023-05-11T16:00:50.003Z,27.62
2023-05-11T16:03:17.471Z,27.57
2023-05-11T16:05:44.914Z,27.41
2023-05-11T16:08:12.533Z,27.33
2023-05-11T16:10:39.353Z,27.32
2023-05-11T16:13:06.410Z,27.30
2023-05-11T16:15:33.151Z,27.35
2023-05-11T16:18:03.088Z,27.26
2023-05-11T16:20:31.686Z,27.13
2023-05-11T16:22:58.690Z,27.08
2023-05-11T16:25:25.396Z,27.07
2023-05-11T16:27:52.409Z,26.96
2023-05-11T16:30:25.046Z,26.90
2023-05-11T16:32:53.258Z,26.87
2023-05-11T16:35:20.455Z,26.90
2023-05-11T16:37:48.021Z,26.89
2023-05-11T16:40:15.299Z,26.80
2023-05-11T16:42:42.499Z,26.71
2023-05-11T16:45:09.790Z,26.65
2023-05-11T16:47:36.932Z,26.60
2023-05-11T16:50:03.871Z,26.59
2023-05-11T16:52:30.951Z,26.54
2023-05-11T16:54:59.098Z,26.41
2023-05-11T16:57:26.809Z,26.36
2023-05-11T16:59:53.582Z,26.41
2023-05-11T17:02:21.258Z,26.44
2023-05-11T17:04:48.941Z,26.41
2023-05-11T17:07:16.208Z,26.32
2023-05-11T17:09:43.064Z,26.26
2023-05-11T17:12:12.998Z,26.28
2023-05-11T17:14:39.725Z,26.10
2023-05-11T17:17:08.132Z,26.08
2023-05-11T17:19:34.925Z,26.01
2023-05-11T17:22:02.250Z,25.98
2023-05-11T17:24:29.011Z,26.00
2023-05-11T17:26:56.154Z,25.93
2023-05-11T17:29:23.264Z,25.81
2023-05-11T17:31:51.821Z,25.76
2023-05-11T17:34:19.732Z,25.74
2023-05-11T17:36:47.960Z,25.61
2023-05-11T17:39:16.403Z,25.58
2023-05-11T17:41:43.553Z,25.44
2023-05-11T17:44:10.370Z,25.45
2023-05-11T17:46:37.448Z,25.55
2023-05-11T17:49:04.293Z,25.56
2023-05-11T17:51:31.324Z,25.41
2023-05-11T17:53:58.107Z,25.34
2023-05-11T17:56:25.208Z,25.28
2023-05-11T17:58:51.975Z,25.27
2023-05-11T18:01:19.758Z,25.09
2023-05-11T18:03:46.899Z,24.97
2023-05-11T18:06:14.703Z,24.96
2023-05-11T18:08:41.586Z,24.91
2023-05-11T18:11:10.920Z,24.89
2023-05-11T18:13:37.729Z,24.84
2023-05-11T18:16:05.135Z,24.85
2023-05-11T18:18:32.073Z,24.67
2023-05-11T18:21:04.955Z,24.62
2023-05-11T18:23:32.266Z,24.56
2023-05-11T18:25:59.484Z,24.45
2023-05-11T18:28:26.338Z,24.46
2023-05-11T18:30:54.226Z,24.43
2023-05-11T18:33:21.256Z,24.38
2023-05-11T18:35:48.455Z,24.33
2023-05-11T18:38:16.654Z,24.34
2023-05-11T18:40:44.867Z,24.23
2023-05-11T18:43:11.652Z,24.24
2023-05-11T18:45:40.915Z,24.16
2023-05-11T18:48:08.036Z,24.11
2023-05-11T18:50:35.854Z,24.05
2023-05-11T18:53:04.036Z,24.06
2023-05-11T18:55:38.162Z,24.00
2023-05-11T18:58:08.042Z,23.95
2023-05-11T19:00:37.508Z,23.90
2023-05-11T19:03:04.510Z,23.84
2023-05-11T19:05:31.701Z,23.78
2023-05-11T19:07:58.968Z,23.70
2023-05-11T19:10:26.112Z,23.61
2023-05-11T19:12:53.020Z,23.58
2023-05-11T19:15:20.053Z,23.51
2023-05-11T19:17:47.069Z,23.45
2023-05-11T19:20:14.869Z,23.38
2023-05-11T19:22:41.663Z,23.26
2023-05-11T19:25:09.461Z,23.22
2023-05-11T19:27:36.726Z,23.19
2023-05-11T19:30:04.703Z,23.11
2023-05-11T19:32:31.617Z,23.02
2023-05-11T19:34:59.807Z,23.01
2023-05-11T19:37:26.860Z,22.94
2023-05-11T19:39:55.044Z,22.85
2023-05-11T19:42:38.281Z,22.83
2023-05-11T19:45:13.677Z,22.74
2023-05-11T19:47:40.925Z,22.68
2023-05-11T19:50:09.620Z,22.62
2023-05-11T19:52:36.780Z,22.58
2023-05-11T19:55:04.752Z,22.48
2023-05-11T19:57:37.021Z,22.49
2023-05-11T20:00:09.837Z,22.40
2023-05-11T20:02:36.794Z,22.33
2023-05-11T20:05:04.628Z,22.32
2023-05-11T20:07:32.064Z,22.22
2023-05-11T20:09:59.196Z,22.12
2023-05-11T20:12:26.000Z,22.10
2023-05-11T20:14:53.263Z,22.05
2023-05-11T20:17:20.106Z,22.03
2023-05-11T20:19:47.249Z,22.01
2023-05-11T20:22:14.227Z,21.98
2023-05-11T20:24:42.058Z,21.90
2023-05-11T20:27:11.043Z,21.88
2023-05-11T20:29:40.348Z,21.83
2023-05-11T20:32:08.282Z,21.75
2023-05-11T20:34:35.691Z,21.72
2023-05-11T20:37:02.554Z,21.66
2023-05-11T20:39:29.756Z,21.65
2023-05-11T20:42:01.099Z,21.58
2023-05-11T20:44:28.259Z,21.55
2023-05-11T20:46:55.055Z,21.47
2023-05-11T20:49:37.616Z,21.42
2023-05-11T20:52:05.913Z,21.37
2023-05-11T20:54:35.003Z,21.35
2023-05-11T20:57:03.102Z,21.36
2023-05-11T21:02:02.998Z,21.24
2023-05-11T21:04:31.420Z,21.22
2023-05-11T21:06:58.411Z,21.19
2023-05-11T21:09:25.667Z,21.11
2023-05-11T21:11:52.576Z,21.10
2023-05-11T21:14:20.264Z,21.07
2023-05-11T21:16:47.786Z,21.05
2023-05-11T21:19:16.508Z,21.03
2023-05-11T21:21:43.423Z,20.96
2023-05-11T21:24:10.635Z,20.92
2023-05-11T21:26:37.683Z,20.88
2023-05-11T21:29:07.678Z,20.86
2023-05-11T21:31:34.507Z,20.81
2023-05-11T21:34:01.743Z,20.79
2023-05-11T21:36:28.677Z,20.73
2023-05-11T21:38:55.672Z,20.72
2023-05-11T21:41:22.578Z,20.67
2023-05-11T21:43:50.475Z,20.61
2023-05-11T21:46:17.212Z,20.61
2023-05-11T21:48:44.323Z,20.62
2023-05-11T21:51:11.451Z,20.62
2023-05-11T21:53:38.477Z,20.59
2023-05-11T21:56:05.346Z,20.56
2023-05-11T21:58:32.679Z,20.56
2023-05-11T22:00:59.422Z,20.49
2023-05-11T22:03:29.926Z,20.48
2023-05-11T22:05:57.128Z,20.45
2023-05-11T22:08:24.207Z,20.48
2023-05-11T22:10:50.928Z,20.49
2023-05-11T22:13:17.956Z,20.41
2023-05-11T22:15:44.687Z,20.40
2023-05-11T22:18:11.762Z,20.39
2023-05-11T22:20:38.461Z,20.30
2023-05-11T22:23:05.633Z,20.31
2023-05-11T22:25:32.452Z,20.25
2023-05-11T22:28:00.087Z,20.24
2023-05-11T22:30:26.834Z,20.23
2023-05-11T22:32:54.110Z,20.17
2023-05-11T22:35:21.308Z,20.15
2023-05-11T22:37:48.689Z,20.14
2023-05-11T22:40:15.453Z,20.07
2023-05-11T22:42:42.533Z,20.00
2023-05-11T22:45:09.804Z,19.96
2023-05-11T22:47:36.929Z,19.95
2023-05-11T22:50:03.954Z,19.90
2023-05-11T22:52:30.984Z,19.90
2023-05-11T22:54:59.006Z,19.85
2023-05-11T22:57:26.557Z,19.82
2023-05-11T22:59:53.258Z,19.82
2023-05-11T23:02:20.496Z,19.72
2023-05-11T23:04:51.958Z,19.69
2023-05-11T23:07:19.436Z,19.69
2023-05-11T23:09:46.370Z,19.64
2023-05-11T23:12:13.519Z,19.59
2023-05-11T23:14:40.288Z,19.61
2023-05-11T23:17:07.379Z,19.53
2023-05-11T23:19:34.263Z,19.52
2023-05-11T23:22:01.278Z,19.43
2023-05-11T23:24:29.010Z,19.43
2023-05-11T23:26:55.993Z,19.42
2023-05-11T23:29:22.947Z,19.35
2023-05-11T23:31:51.078Z,19.40
2023-05-11T23:34:18.388Z,19.23
2023-05-11T23:36:45.705Z,19.25
2023-05-11T23:39:12.418Z,19.26
2023-05-11T23:41:39.550Z,19.23
2023-05-11T23:44:06.283Z,19.17
2023-05-11T23:46:33.311Z,19.20
2023-05-11T23:49:00.025Z,19.17
2023-05-11T23:51:27.068Z,19.17
2023-05-11T23:53:53.820Z,19.11
2023-05-11T23:56:21.641Z,19.09
2023-05-11T23:58:50.408Z,19.12
